Time;durP1;ratioP1;P1;durP2;ratioP2;P2;SDS_P1;SDS_P2;PMS_P1;PMS_P2;Temp;Humidity;BMP_temperature;BMP_pressure;BME280_temperature;BME280_humidity;BME280_pressure;Samples;Min_cycle;Max_cycle;Signal;HPM_P1;HPM_P2
2022/03/11 00:01:28;;;;;;;10.18;1.63;;;22.20;86.80;;;;;;5066866;28;20398;-79
2022/03/11 00:03:56;;;;;;;6.05;1.30;;;22.50;86.90;;;;;;5066832;28;20384;-80
2022/03/11 00:06:23;;;;;;;3.90;1.38;;;22.60;82.40;;;;;;5066585;28;20429;-80
2022/03/11 00:08:51;;;;;;;5.78;1.40;;;23.00;78.20;;;;;;5066857;28;20366;-87
2022/03/11 00:11:18;;;;;;;6.55;1.40;;;23.10;80.30;;;;;;5066505;28;20406;-80
2022/03/11 00:13:45;;;;;;;6.45;1.33;;;23.30;76.70;;;;;;5066673;28;20453;-81
2022/03/11 00:16:13;;;;;;;5.45;1.42;;;23.40;73.90;;;;;;5066881;28;20390;-79
2022/03/11 00:18:43;;;;;;;5.35;1.50;;;23.50;73.00;;;;;;5070750;28;20456;-84
2022/03/11 00:21:12;;;;;;;6.28;1.50;;;23.50;76.10;;;;;;5070744;28;20374;-83
2022/03/11 00:23:42;;;;;;;5.07;1.55;;;23.70;75.80;;;;;;5070917;28;20385;-79
2022/03/11 00:26:10;;;;;;;5.43;1.35;;;23.80;71.80;;;;;;5070985;28;21076;-84
2022/03/11 00:28:38;;;;;;;5.53;1.30;;;24.10;71.80;;;;;;5070677;28;20376;-83
2022/03/11 00:31:08;;;;;;;4.70;1.20;;;24.40;69.40;;;;;;5071467;28;20734;-84
2022/03/11 00:33:35;;;;;;;4.00;1.23;;;24.30;68.80;;;;;;5070644;28;20377;-85
2022/03/11 00:36:03;;;;;;;5.43;1.30;;;24.20;69.50;;;;;;5070577;28;20374;-85
2022/03/11 00:38:30;;;;;;;5.20;1.40;;;24.30;69.30;;;;;;5070457;28;20512;-86
2022/03/11 00:40:58;;;;;;;7.63;1.42;;;24.50;69.80;;;;;;5070851;28;20382;-82
2022/03/11 00:43:25;;;;;;;4.65;1.65;;;24.60;69.50;;;;;;5070267;28;20449;-79
2022/03/11 00:45:53;;;;;;;4.80;1.40;;;24.70;68.30;;;;;;5070682;28;20378;-78
2022/03/11 00:48:20;;;;;;;6.88;1.40;;;25.00;65.40;;;;;;5070208;28;20756;-80
2022/03/11 00:50:48;;;;;;;5.82;1.30;;;24.90;67.10;;;;;;5052400;28;20390;-87
2022/03/11 00:53:15;;;;;;;6.57;1.60;;;25.00;66.20;;;;;;5052370;28;20383;-87
2022/03/11 00:55:42;;;;;;;5.28;1.50;;;25.40;65.00;;;;;;5069893;28;20500;-80
2022/03/11 00:58:09;;;;;;;6.03;1.60;;;25.90;63.00;;;;;;5070254;28;20404;-84
2022/03/11 01:00:36;;;;;;;5.03;1.30;;;26.10;63.80;;;;;;5070290;28;20389;-86
2022/03/11 01:03:04;;;;;;;5.40;1.52;;;25.40;64.40;;;;;;5070180;28;20467;-81
2022/03/11 01:05:31;;;;;;;4.57;1.40;;;25.60;66.40;;;;;;5069642;28;20385;-85
2022/03/11 01:07:58;;;;;;;6.97;1.70;;;26.00;61.50;;;;;;5069470;28;20382;-80
2022/03/11 01:10:25;;;;;;;5.43;1.58;;;26.30;63.00;;;;;;5069647;28;20814;-86
2022/03/11 01:12:52;;;;;;;5.32;1.40;;;26.40;61.30;;;;;;5070031;28;20382;-82
2022/03/11 01:15:19;;;;;;;4.10;1.30;;;26.60;61.70;;;;;;5069338;28;20761;-86
2022/03/11 01:17:46;;;;;;;5.20;1.50;;;26.40;60.70;;;;;;5069895;28;20382;-85
2022/03/11 01:20:13;;;;;;;4.22;1.20;;;26.40;59.20;;;;;;5069723;28;20877;-81
2022/03/11 01:22:40;;;;;;;6.57;1.40;;;26.40;59.40;;;;;;5069525;28;20377;-84
2022/03/11 01:25:08;;;;;;;4.13;1.27;;;26.40;61.40;;;;;;5069429;28;20497;-78
2022/03/11 01:27:37;;;;;;;5.38;1.30;;;26.40;57.80;;;;;;5069241;28;20417;-85
2022/03/11 01:30:06;;;;;;;4.28;1.20;;;26.30;56.60;;;;;;5068745;28;20381;-82
2022/03/11 01:32:33;;;;;;;5.80;1.35;;;26.10;56.80;;;;;;5069360;28;20382;-86
2022/03/11 01:35:00;;;;;;;5.35;1.50;;;25.80;58.70;;;;;;5069420;28;20410;-86
2022/03/11 01:37:27;;;;;;;4.05;1.20;;;25.50;60.00;;;;;;5069166;28;20398;-85
2022/03/11 01:39:53;;;;;;;5.40;1.42;;;25.70;60.80;;;;;;5069240;28;20428;-81
2022/03/11 01:42:20;;;;;;;3.95;1.30;;;26.20;58.60;;;;;;5069314;28;20374;-80
2022/03/11 01:44:48;;;;;;;4.38;1.20;;;27.00;56.70;;;;;;5069415;28;20551;-87
2022/03/11 01:47:15;;;;;;;4.63;1.40;;;27.70;54.20;;;;;;5069147;28;20416;-86
2022/03/11 01:49:42;;;;;;;4.07;1.40;;;27.60;55.50;;;;;;5069195;28;20854;-85
2022/03/11 01:52:09;;;;;;;4.57;1.40;;;28.30;53.80;;;;;;5068897;28;20428;-87
2022/03/11 01:54:36;;;;;;;5.65;1.35;;;29.00;52.40;;;;;;5068792;28;20409;-85
2022/03/11 01:57:03;;;;;;;6.20;1.20;;;28.80;51.20;;;;;;5068864;28;20473;-80
2022/03/11 01:59:31;;;;;;;5.35;1.30;;;28.00;52.20;;;;;;5069070;28;20450;-85
2022/03/11 02:01:58;;;;;;;5.88;1.40;;;26.80;54.60;;;;;;5068920;28;20374;-83
2022/03/11 02:04:25;;;;;;;3.83;1.43;;;25.80;57.20;;;;;;5068869;28;20876;-85
2022/03/11 02:06:53;;;;;;;5.07;1.38;;;26.30;59.50;;;;;;5068669;28;20374;-80
2022/03/11 02:09:20;;;;;;;3.70;1.25;;;27.20;57.10;;;;;;5068748;28;20822;-85
2022/03/11 02:11:48;;;;;;;6.03;1.60;;;27.00;56.80;;;;;;5069324;28;20428;-85
2022/03/11 02:14:15;;;;;;;5.60;1.40;;;26.90;57.50;;;;;;5069273;28;20400;-85
2022/03/11 02:16:42;;;;;;;5.43;1.60;;;27.00;56.80;;;;;;5070742;28;20858;-84
2022/03/11 02:19:09;;;;;;;4.45;1.40;;;27.50;58.20;;;;;;5071148;28;20385;-80
2022/03/11 02:21:45;;;;;;;5.55;1.58;;;29.00;56.00;;;;;;5069011;28;20448;-86
2022/03/11 02:24:14;;;;;;;3.95;1.40;;;30.10;52.90;;;;;;5069125;28;20400;-80
2022/03/11 02:26:42;;;;;;;6.03;1.60;;;30.90;52.80;;;;;;5068825;28;20376;-85
2022/03/11 02:29:09;;;;;;;4.47;1.50;;;31.90;49.70;;;;;;5068570;28;20373;-83
2022/03/11 02:31:36;;;;;;;4.72;1.60;;;32.70;48.20;;;;;;5068666;28;20397;-84
2022/03/11 02:34:05;;;;;;;4.53;1.50;;;33.30;46.50;;;;;;5072252;28;20398;-83
2022/03/11 02:36:32;;;;;;;4.97;1.80;;;33.10;46.00;;;;;;5068743;28;20382;-81
2022/03/11 02:38:59;;;;;;;6.25;1.83;;;32.20;44.80;;;;;;5067966;28;20405;-85
2022/03/11 02:41:26;;;;;;;5.53;1.83;;;30.80;48.00;;;;;;5067984;28;20386;-85
2022/03/11 02:43:54;;;;;;;5.72;1.90;;;29.40;48.90;;;;;;5068592;28;20374;-86
2022/03/11 02:46:21;;;;;;;5.55;1.67;;;29.20;51.90;;;;;;5050299;28;20385;-84
2022/03/11 02:48:48;;;;;;;7.20;1.73;;;29.10;50.20;;;;;;5068179;28;20706;-80
2022/03/11 02:51:15;;;;;;;4.70;1.60;;;29.60;51.00;;;;;;5067728;28;20394;-84
2022/03/11 02:53:43;;;;;;;5.95;1.58;;;30.60;50.00;;;;;;5067643;28;20374;-79
2022/03/11 02:56:13;;;;;;;7.80;1.60;;;32.10;48.50;;;;;;5067910;28;20416;-85
2022/03/11 02:58:41;;;;;;;5.85;1.70;;;33.50;44.10;;;;;;5067668;28;20366;-81
2022/03/11 03:01:09;;;;;;;5.10;1.60;;;33.10;44.10;;;;;;5068023;28;20729;-84
2022/03/11 03:03:36;;;;;;;7.07;1.85;;;33.20;45.20;;;;;;5067600;28;20398;-88
2022/03/11 03:06:04;;;;;;;4.50;1.60;;;33.00;47.30;;;;;;5067895;28;20378;-81
2022/03/11 03:08:32;;;;;;;6.97;1.65;;;33.70;45.20;;;;;;5067512;28;20371;-79
2022/03/11 03:10:59;;;;;;;6.13;1.73;;;32.70;45.50;;;;;;5067864;28;20402;-78
2022/03/11 03:13:26;;;;;;;4.82;1.80;;;31.60;47.20;;;;;;5067575;28;20455;-81
2022/03/11 03:15:53;;;;;;;5.93;2.00;;;30.20;49.80;;;;;;5067642;28;20410;-85
2022/03/11 03:18:20;;;;;;;4.93;1.80;;;28.90;52.10;;;;;;5067429;28;20389;-85
2022/03/11 03:20:47;;;;;;;8.82;1.80;;;28.20;52.80;;;;;;5067574;28;20417;-85
2022/03/11 03:23:14;;;;;;;5.20;1.80;;;27.70;53.20;;;;;;5067363;28;20821;-85
2022/03/11 03:25:41;;;;;;;6.83;1.80;;;27.30;54.60;;;;;;5067067;28;21031;-83
2022/03/11 03:28:12;;;;;;;6.97;2.00;;;27.00;56.30;;;;;;5067220;28;20374;-85
2022/03/11 03:30:39;;;;;;;4.53;1.60;;;26.60;58.20;;;;;;5067052;28;20374;-79
2022/03/11 03:33:06;;;;;;;7.38;2.30;;;26.20;57.60;;;;;;5067314;28;20378;-84
2022/03/11 03:35:33;;;;;;;6.60;1.90;;;26.10;58.80;;;;;;5067050;28;20406;-80
2022/03/11 03:38:00;;;;;;;5.10;1.80;;;25.90;58.90;;;;;;5067239;28;20381;-84
2022/03/11 03:40:27;;;;;;;6.53;1.85;;;25.60;60.10;;;;;;5067243;28;20382;-83
2022/03/11 03:42:54;;;;;;;7.10;1.98;;;25.40;60.80;;;;;;5067407;28;20375;-81
2022/03/11 03:45:21;;;;;;;7.05;1.90;;;25.50;60.60;;;;;;5067051;28;20376;-81
2022/03/11 03:47:48;;;;;;;4.80;1.90;;;25.50;60.50;;;;;;5067224;28;20374;-83
2022/03/11 03:50:15;;;;;;;7.82;1.85;;;25.70;61.10;;;;;;5072095;28;20708;-78
2022/03/11 03:52:44;;;;;;;6.57;1.83;;;25.90;59.70;;;;;;5066432;28;20802;-80
2022/03/11 03:55:11;;;;;;;8.40;1.80;;;25.90;61.60;;;;;;5048382;28;20405;-83
2022/03/11 03:57:39;;;;;;;10.23;1.90;;;25.80;61.00;;;;;;5048802;28;20781;-85
2022/03/11 04:00:07;;;;;;;6.68;1.70;;;25.60;61.00;;;;;;5066835;28;20378;-83
2022/03/11 04:02:36;;;;;;;7.05;1.48;;;25.70;60.90;;;;;;5067032;28;20370;-82
2022/03/11 04:05:05;;;;;;;5.03;1.58;;;26.10;58.70;;;;;;5066629;28;20378;-83
2022/03/11 04:07:31;;;;;;;6.43;1.70;;;26.30;58.50;;;;;;5067299;28;20409;-80
2022/03/11 04:09:59;;;;;;;5.28;1.50;;;26.30;58.70;;;;;;5067150;28;20386;-84
2022/03/11 04:12:26;;;;;;;5.93;1.60;;;26.10;58.90;;;;;;5066990;28;20374;-82
2022/03/11 04:14:53;;;;;;;6.78;1.70;;;26.10;58.70;;;;;;5066714;28;20394;-81
2022/03/11 04:17:19;;;;;;;5.15;1.50;;;26.20;59.50;;;;;;5067317;28;20389;-82
2022/03/11 04:19:46;;;;;;;5.13;1.70;;;26.10;59.90;;;;;;5066663;28;20884;-79
2022/03/11 04:22:13;;;;;;;7.25;1.63;;;26.20;60.50;;;;;;5066455;28;20429;-84
2022/03/11 04:24:43;;;;;;;7.70;2.05;;;26.40;59.10;;;;;;5058149;28;20403;-81
2022/03/11 04:27:10;;;;;;;7.32;2.00;;;26.60;59.50;;;;;;5067008;28;20842;-79
2022/03/11 04:29:37;;;;;;;4.40;1.73;;;27.50;58.40;;;;;;5066275;28;20477;-86
2022/03/11 04:32:05;;;;;;;5.13;1.67;;;29.20;55.80;;;;;;5066513;28;20385;-84
2022/03/11 04:34:32;;;;;;;6.88;1.65;;;30.80;52.70;;;;;;5066809;28;20408;-80
2022/03/11 04:36:59;;;;;;;5.65;1.60;;;31.80;50.40;;;;;;5066489;28;20366;-80
2022/03/11 04:39:26;;;;;;;6.10;1.70;;;32.50;49.40;;;;;;5066725;28;20378;-82
2022/03/11 04:41:54;;;;;;;6.90;1.60;;;33.30;46.40;;;;;;5066749;28;20366;-85
2022/03/11 04:44:22;;;;;;;6.85;1.58;;;33.50;46.30;;;;;;5064349;28;20382;-86
2022/03/11 04:46:49;;;;;;;8.13;1.70;;;34.00;46.60;;;;;;5066458;28;20413;-83
2022/03/11 04:49:17;;;;;;;6.00;1.65;;;34.60;44.20;;;;;;5066293;28;20873;-84
2022/03/11 04:51:44;;;;;;;5.82;1.50;;;35.00;44.40;;;;;;5048136;28;20417;-80
2022/03/11 04:54:11;;;;;;;4.13;1.58;;;34.90;45.80;;;;;;5066641;28;20472;-80
2022/03/11 04:56:38;;;;;;;4.88;1.60;;;34.80;44.80;;;;;;5067442;28;20886;-84
2022/03/11 04:59:05;;;;;;;6.00;1.52;;;35.10;44.20;;;;;;5066539;28;20370;-81
2022/03/11 05:01:32;;;;;;;9.07;1.80;;;35.10;43.50;;;;;;5066171;28;20508;-82
2022/03/11 05:03:59;;;;;;;4.43;1.67;;;34.40;43.20;;;;;;5068974;28;20738;-84
2022/03/11 05:06:26;;;;;;;6.00;1.70;;;33.30;47.30;;;;;;5070241;28;20935;-82
2022/03/11 05:08:53;;;;;;;7.25;1.65;;;33.30;47.20;;;;;;5071033;28;20970;-79
2022/03/11 05:11:20;;;;;;;4.97;1.60;;;34.00;45.50;;;;;;5070453;28;20459;-83
2022/03/11 05:13:47;;;;;;;7.30;1.77;;;34.10;45.80;;;;;;5069817;28;20388;-80
2022/03/11 05:16:14;;;;;;;5.53;1.67;;;33.00;46.80;;;;;;5070031;28;20386;-80
2022/03/11 05:18:41;;;;;;;5.20;1.60;;;32.50;48.40;;;;;;5070211;28;20362;-86
2022/03/11 05:21:07;;;;;;;6.35;1.77;;;32.60;48.20;;;;;;5069593;28;20377;-82
2022/03/11 05:23:34;;;;;;;4.65;1.48;;;33.00;47.90;;;;;;5069702;28;20366;-80
2022/03/11 05:26:02;;;;;;;5.57;1.50;;;32.90;47.40;;;;;;5069349;28;20720;-84
2022/03/11 05:28:29;;;;;;;4.50;1.50;;;33.40;46.50;;;;;;5069536;28;20370;-80
2022/03/11 05:30:56;;;;;;;4.93;1.70;;;33.60;47.40;;;;;;5069353;28;20386;-81
2022/03/11 05:33:23;;;;;;;5.57;1.73;;;34.40;45.30;;;;;;5069308;28;20371;-82
2022/03/11 05:35:50;;;;;;;4.88;1.65;;;34.90;44.50;;;;;;5069501;28;20478;-81
2022/03/11 05:38:19;;;;;;;3.17;1.50;;;34.90;44.30;;;;;;5069634;28;20704;-85
2022/03/11 05:40:46;;;;;;;6.32;1.70;;;34.70;44.50;;;;;;5052208;28;20388;-79
2022/03/11 05:43:13;;;;;;;5.20;1.65;;;35.00;44.60;;;;;;5052478;28;20723;-81
2022/03/11 05:45:41;;;;;;;4.93;1.58;;;34.80;45.00;;;;;;5071161;28;20878;-79
2022/03/11 05:48:09;;;;;;;5.70;1.70;;;34.60;45.30;;;;;;5070867;28;20374;-85
2022/03/11 05:50:36;;;;;;;4.03;1.58;;;33.50;46.50;;;;;;5070099;28;20459;-80
2022/03/11 05:53:03;;;;;;;6.33;1.60;;;33.40;47.20;;;;;;5069837;28;20389;-87
2022/03/11 05:55:30;;;;;;;4.57;1.60;;;33.40;46.80;;;;;;5070020;28;20523;-88
2022/03/11 05:57:57;;;;;;;4.70;1.55;;;33.00;47.50;;;;;;5070852;28;20381;-82
2022/03/11 06:00:24;;;;;;;4.70;1.30;;;32.10;47.30;;;;;;5070354;28;20374;-85
2022/03/11 06:02:51;;;;;;;5.80;1.60;;;31.10;49.60;;;;;;5069953;28;20717;-84
2022/03/11 06:05:18;;;;;;;5.07;1.33;;;30.10;51.20;;;;;;5069497;28;20366;-88
2022/03/11 06:07:45;;;;;;;5.10;1.50;;;28.80;54.50;;;;;;5069000;28;20946;-81
2022/03/11 06:10:12;;;;;;;6.97;1.60;;;27.80;57.00;;;;;;5069182;28;20478;-81
2022/03/11 06:12:39;;;;;;;7.15;1.50;;;27.00;58.70;;;;;;5069314;28;21285;-81
2022/03/11 06:15:11;;;;;;;7.65;1.80;;;26.50;60.70;;;;;;5067757;28;20424;-80
2022/03/11 06:17:38;;;;;;;5.68;1.50;;;25.90;63.50;;;;;;5068947;28;20389;-84
2022/03/11 06:20:08;;;;;;;5.60;1.65;;;25.50;65.20;;;;;;5068933;28;20571;-80
2022/03/11 06:22:36;;;;;;;5.50;1.40;;;25.30;66.10;;;;;;5068241;28;20810;-80
2022/03/11 06:25:04;;;;;;;7.03;1.33;;;25.20;66.30;;;;;;5051491;28;20465;-86
2022/03/11 06:27:31;;;;;;;7.20;1.50;;;25.20;66.60;;;;;;5068926;28;20378;-79
2022/03/11 06:29:58;;;;;;;5.40;1.40;;;25.10;67.00;;;;;;5050468;28;20853;-85
2022/03/11 06:32:25;;;;;;;6.40;1.63;;;25.00;68.20;;;;;;5070352;28;20404;-85
2022/03/11 06:34:54;;;;;;;4.50;1.48;;;25.10;68.20;;;;;;5068650;28;20436;-82
2022/03/11 06:37:21;;;;;;;5.22;1.40;;;25.10;68.60;;;;;;5052772;28;20379;-82
2022/03/11 06:39:48;;;;;;;7.75;1.60;;;25.10;67.80;;;;;;5048838;28;20778;-91
2022/03/11 06:42:15;;;;;;;5.30;1.67;;;25.10;67.70;;;;;;5050628;28;20376;-84
2022/03/11 06:44:42;;;;;;;6.15;1.45;;;25.20;67.90;;;;;;5070233;28;20501;-88
2022/03/11 06:47:09;;;;;;;6.43;1.60;;;25.60;67.50;;;;;;5067807;28;20378;-84
2022/03/11 06:49:36;;;;;;;6.07;1.40;;;26.40;65.10;;;;;;5066255;28;20738;-80
2022/03/11 06:52:03;;;;;;;4.53;1.27;;;27.30;63.20;;;;;;5068269;28;20421;-81
2022/03/11 06:54:30;;;;;;;4.45;1.33;;;28.20;60.70;;;;;;5067532;28;20416;-86
2022/03/11 06:56:57;;;;;;;4.15;1.30;;;28.90;59.40;;;;;;5059218;28;20380;-84
2022/03/11 06:59:25;;;;;;;4.40;1.45;;;29.10;58.30;;;;;;5050158;28;20396;-91
2022/03/11 07:01:52;;;;;;;4.70;1.30;;;29.10;58.20;;;;;;5046619;28;20378;-88
2022/03/11 07:04:19;;;;;;;4.95;1.58;;;28.90;57.50;;;;;;5068643;28;20420;-85
2022/03/11 07:06:46;;;;;;;5.57;1.40;;;28.80;57.60;;;;;;5070930;28;20385;-82
2022/03/11 07:09:13;;;;;;;5.57;1.50;;;28.80;58.50;;;;;;5068534;28;20401;-83
2022/03/11 07:11:40;;;;;;;4.63;1.47;;;28.50;58.40;;;;;;5050146;28;20379;-91
2022/03/11 07:14:07;;;;;;;7.45;1.50;;;27.50;59.90;;;;;;5056816;28;20393;-88
2022/03/11 07:16:34;;;;;;;5.53;1.48;;;26.40;62.20;;;;;;5059068;28;21024;-84
2022/03/11 07:19:01;;;;;;;4.82;1.60;;;25.40;65.80;;;;;;5064168;28;20420;-88
2022/03/11 07:21:28;;;;;;;4.47;1.60;;;24.60;68.60;;;;;;5057320;28;20946;-89
2022/03/11 07:23:56;;;;;;;5.65;1.30;;;24.00;71.10;;;;;;5049777;28;20436;-89
2022/03/11 07:26:23;;;;;;;5.03;1.50;;;23.70;72.40;;;;;;5051990;28;20400;-83
2022/03/11 07:28:50;;;;;;;7.50;1.67;;;23.50;74.40;;;;;;5064400;28;20444;-88
2022/03/11 07:31:17;;;;;;;10.50;6.53;;;23.30;75.90;;;;;;5058001;28;20444;-82
2022/03/11 07:33:44;;;;;;;22.92;15.50;;;23.20;78.10;;;;;;5059334;28;20386;-83
2022/03/11 07:36:11;;;;;;;12.07;5.47;;;23.10;80.30;;;;;;5069983;28;20411;-84
2022/03/11 07:38:38;;;;;;;16.17;6.70;;;23.00;83.60;;;;;;5067126;28;20452;-84
2022/03/11 07:41:07;;;;;;;22.80;10.30;;;22.90;87.70;;;;;;5064870;28;20390;-86
2022/03/11 07:43:35;;;;;;;6.10;2.10;;;22.80;90.30;;;;;;5069123;28;20718;-89
2022/03/11 07:46:02;;;;;;;6.90;1.92;;;22.70;91.60;;;;;;5068830;28;20386;-89
2022/03/11 07:48:29;;;;;;;8.00;1.70;;;22.70;92.90;;;;;;5068231;28;20421;-91
2022/03/11 07:50:56;;;;;;;7.17;1.50;;;22.50;93.70;;;;;;5067428;28;20402;-91
2022/03/11 07:53:23;;;;;;;7.25;1.40;;;22.40;94.80;;;;;;5054985;28;20411;-88
2022/03/11 07:55:50;;;;;;;7.55;1.60;;;22.30;95.80;;;;;;5048459;28;20474;-90
2022/03/11 07:58:21;;;;;;;7.03;1.60;;;22.30;96.30;;;;;;5060817;28;20446;-82
2022/03/11 08:00:49;;;;;;;7.20;1.70;;;22.20;96.70;;;;;;5063958;28;20409;-85
2022/03/11 08:03:17;;;;;;;5.55;1.50;;;22.20;96.90;;;;;;5050472;28;20897;-93
2022/03/11 08:05:44;;;;;;;5.35;1.48;;;22.10;96.90;;;;;;5049069;28;20415;-82
2022/03/11 08:08:11;;;;;;;6.90;1.30;;;22.10;97.10;;;;;;5049110;28;20441;-90
2022/03/11 08:10:39;;;;;;;7.47;1.40;;;22.10;97.60;;;;;;5047794;28;20441;-89
2022/03/11 08:13:06;;;;;;;7.50;1.52;;;22.00;98.10;;;;;;5047944;28;20779;-91
2022/03/11 08:15:34;;;;;;;5.85;1.48;;;22.00;98.40;;;;;;5055698;28;20402;-91
2022/03/11 08:18:03;;;;;;;5.38;1.67;;;22.10;98.80;;;;;;5069083;28;20402;-85
2022/03/11 08:20:31;;;;;;;6.43;1.70;;;22.00;98.80;;;;;;5064986;28;20444;-93
2022/03/11 08:22:58;;;;;;;5.88;1.40;;;21.90;98.70;;;;;;5047420;28;20410;-82
2022/03/11 08:25:27;;;;;;;6.75;1.58;;;21.90;98.90;;;;;;5062446;28;20379;-84
2022/03/11 08:27:56;;;;;;;5.33;1.43;;;21.90;98.80;;;;;;5057645;28;20454;-94
2022/03/11 08:30:25;;;;;;;8.70;1.80;;;21.80;99.10;;;;;;5068581;28;20439;-81
2022/03/11 08:32:53;;;;;;;5.53;1.40;;;21.80;99.30;;;;;;5066276;28;20402;-86
2022/03/11 08:35:21;;;;;;;8.05;1.52;;;21.70;99.50;;;;;;5066151;28;20893;-89
2022/03/11 08:37:48;;;;;;;6.63;1.48;;;21.70;99.30;;;;;;5067455;28;20442;-90
2022/03/11 08:40:15;;;;;;;5.90;1.60;;;21.60;99.60;;;;;;5071336;28;20687;-87
2022/03/11 08:42:43;;;;;;;6.47;1.50;;;21.50;99.70;;;;;;5070772;28;20400;-85
2022/03/11 08:45:11;;;;;;;6.37;1.70;;;21.50;99.90;;;;;;5070078;28;20951;-86
2022/03/11 08:47:39;;;;;;;5.45;1.45;;;21.40;99.90;;;;;;5070511;28;20473;-86
2022/03/11 08:50:06;;;;;;;7.05;1.40;;;21.40;99.90;;;;;;5071569;28;20393;-83
2022/03/11 08:52:34;;;;;;;5.03;1.30;;;21.30;99.90;;;;;;5070436;28;20398;-87
2022/03/11 08:55:01;;;;;;;5.25;1.27;;;21.30;99.90;;;;;;5070861;28;20463;-85
2022/03/11 08:57:28;;;;;;;6.88;1.45;;;21.20;99.90;;;;;;5069801;28;20447;-87
2022/03/11 08:59:55;;;;;;;5.30;1.40;;;21.20;99.90;;;;;;5070803;28;20869;-82
2022/03/11 09:02:23;;;;;;;7.67;1.50;;;21.10;99.90;;;;;;5070181;28;20460;-91
2022/03/11 09:04:50;;;;;;;4.80;1.55;;;21.20;99.90;;;;;;5070597;28;20389;-89
2022/03/11 09:07:17;;;;;;;4.38;1.40;;;21.20;99.90;;;;;;5070406;28;20393;-89
2022/03/11 09:09:44;;;;;;;5.22;1.38;;;21.20;99.90;;;;;;5057524;28;20398;-89
2022/03/11 09:12:11;;;;;;;4.40;1.35;;;21.20;99.90;;;;;;5068789;28;20395;-84
2022/03/11 09:14:39;;;;;;;4.50;1.40;;;21.20;99.90;;;;;;5074941;28;20927;-85
2022/03/11 09:17:06;;;;;;;5.72;1.40;;;21.10;99.90;;;;;;5074288;28;20405;-81
2022/03/11 09:19:33;;;;;;;5.15;1.30;;;21.10;99.90;;;;;;5060537;28;20413;-81
2022/03/11 09:22:00;;;;;;;5.70;1.43;;;21.00;99.90;;;;;;5067513;28;20387;-84
2022/03/11 09:24:27;;;;;;;5.65;1.38;;;21.00;99.90;;;;;;5059340;28;20382;-81
2022/03/11 09:26:55;;;;;;;5.88;1.50;;;20.90;99.90;;;;;;5070927;28;20397;-88
2022/03/11 09:29:23;;;;;;;6.03;1.20;;;20.90;99.90;;;;;;5051409;28;20384;-90
2022/03/11 09:31:50;;;;;;;8.65;1.27;;;20.90;99.90;;;;;;5067023;28;20424;-88
2022/03/11 09:34:17;;;;;;;5.50;1.23;;;20.90;99.90;;;;;;5038297;28;20434;-86
2022/03/11 09:36:44;;;;;;;4.40;1.23;;;20.90;99.90;;;;;;5060521;28;20398;-83
2022/03/11 09:39:12;;;;;;;5.10;1.10;;;20.90;99.90;;;;;;5055392;28;20416;-82
2022/03/11 09:41:40;;;;;;;4.88;1.20;;;20.90;99.90;;;;;;5054212;28;20397;-84
2022/03/11 09:44:08;;;;;;;5.03;1.40;;;20.80;99.90;;;;;;5070254;28;20993;-85
2022/03/11 09:46:35;;;;;;;7.07;1.20;;;20.40;99.90;;;;;;5069980;28;20393;-84
2022/03/11 09:49:03;;;;;;;9.23;2.83;;;20.80;99.90;;;;;;5068799;28;20370;-91
2022/03/11 09:51:32;;;;;;;5.85;2.20;;;20.80;99.90;;;;;;5069077;28;20405;-84
2022/03/11 09:53:59;;;;;;;4.23;1.40;;;20.70;99.90;;;;;;5069738;28;20392;-86
2022/03/11 09:56:27;;;;;;;4.75;1.40;;;20.70;99.90;;;;;;5069472;28;20870;-88
2022/03/11 09:58:57;;;;;;;7.00;1.48;;;20.60;99.90;;;;;;5089657;28;20373;-88
2022/03/11 10:01:24;;;;;;;4.20;1.50;;;20.70;99.90;;;;;;5076895;28;20832;-89
2022/03/11 10:03:54;;;;;;;4.70;1.38;;;20.60;99.90;;;;;;5079003;28;20398;-91
2022/03/11 10:06:44;;;;;;;5.97;1.55;;;20.60;99.90;;;;;;5078445;28;20382;-91
2022/03/11 10:09:24;;;;;;;6.68;1.88;;;20.50;99.90;;;;;;5063054;28;20403;-92
2022/03/11 10:11:54;;;;;;;5.65;1.70;;;20.50;99.90;;;;;;5059562;28;20396;-91
2022/03/11 10:14:32;;;;;;;5.00;1.50;;;20.50;99.90;;;;;;5069759;28;20430;-87
2022/03/11 10:17:00;;;;;;;5.57;1.55;;;20.40;99.90;;;;;;5070592;28;20471;-88
2022/03/11 10:19:27;;;;;;;6.22;1.80;;;20.50;99.90;;;;;;5067671;28;20376;-93
2022/03/11 10:21:58;;;;;;;5.05;1.52;;;20.40;99.90;;;;;;5070223;28;20857;-84
2022/03/11 10:24:26;;;;;;;4.88;1.58;;;20.40;99.90;;;;;;5069511;28;20931;-89
2022/03/11 10:26:58;;;;;;;5.45;1.52;;;20.30;99.90;;;;;;5049700;28;20377;-88
2022/03/11 10:29:29;;;;;;;6.95;1.70;;;20.30;99.90;;;;;;5088409;28;20390;-92
2022/03/11 10:31:57;;;;;;;6.88;1.92;;;20.20;99.90;;;;;;5073838;28;20389;-88
2022/03/11 10:34:25;;;;;;;5.97;1.90;;;20.10;99.90;;;;;;5071288;28;20444;-89
2022/03/11 10:37:07;;;;;;;6.05;1.73;;;20.00;99.90;;;;;;5071235;28;20386;-86
2022/03/11 10:39:40;;;;;;;6.20;1.52;;;20.00;99.90;;;;;;5072001;28;20373;-82
2022/03/11 10:42:13;;;;;;;7.05;1.65;;;20.00;99.90;;;;;;5052025;28;20388;-89
2022/03/11 10:44:53;;;;;;;5.00;1.50;;;20.00;99.90;;;;;;5031159;28;20381;-84
2022/03/11 10:47:22;;;;;;;4.13;1.40;;;20.10;99.90;;;;;;5030294;28;20382;-84
2022/03/11 10:49:53;;;;;;;6.03;1.70;;;20.10;99.90;;;;;;5012770;28;20427;-91
2022/03/11 10:52:44;;;;;;;5.53;1.50;;;20.20;99.90;;;;;;5028888;28;20405;-85
2022/03/11 10:55:26;;;;;;;6.75;1.60;;;20.20;99.90;;;;;;5030775;28;20928;-83
2022/03/11 10:58:00;;;;;;;4.82;1.40;;;20.30;99.90;;;;;;5030070;28;20393;-87
2022/03/11 11:00:32;;;;;;;7.40;1.50;;;20.30;99.90;;;;;;5028911;28;20385;-91
2022/03/11 11:03:05;;;;;;;6.35;1.63;;;20.30;99.90;;;;;;5029132;28;20390;-94
2022/03/11 11:05:36;;;;;;;3.95;1.33;;;20.30;99.90;;;;;;5029622;28;20478;-82
2022/03/11 11:08:08;;;;;;;5.00;1.60;;;20.40;99.90;;;;;;5010674;28;20742;-91
2022/03/11 11:10:40;;;;;;;6.90;1.55;;;20.40;99.90;;;;;;5027832;28;20443;-90
2022/03/11 11:13:11;;;;;;;7.05;1.60;;;20.30;99.90;;;;;;5054558;28;20401;-92
2022/03/11 11:15:42;;;;;;;5.00;1.40;;;20.30;99.90;;;;;;5069993;28;20410;-92
2022/03/11 11:18:13;;;;;;;4.70;1.30;;;20.20;99.90;;;;;;5070431;28;20362;-86
2022/03/11 11:20:53;;;;;;;4.13;1.50;;;20.10;99.90;;;;;;5063682;28;20424;-87
2022/03/11 11:23:21;;;;;;;6.73;1.77;;;20.10;99.90;;;;;;5071764;28;20376;-85
2022/03/11 11:25:51;;;;;;;4.97;1.50;;;20.10;99.90;;;;;;5070387;28;20386;-93
2022/03/11 11:28:23;;;;;;;5.32;1.60;;;20.10;99.90;;;;;;5068723;28;20385;-91
2022/03/11 11:30:54;;;;;;;7.00;1.77;;;20.10;99.90;;;;;;5069160;28;20381;-93
2022/03/11 11:33:22;;;;;;;6.13;1.60;;;20.10;99.90;;;;;;5068870;28;20394;-89
2022/03/11 11:35:57;;;;;;;5.72;1.75;;;20.10;99.90;;;;;;5068941;28;20419;-91
2022/03/11 11:38:39;;;;;;;6.40;1.60;;;20.00;99.90;;;;;;5051117;28;20486;-87
2022/03/11 11:41:26;;;;;;;4.88;1.63;;;20.00;99.90;;;;;;5069319;28;20903;-93
2022/03/11 11:43:56;;;;;;;7.18;1.65;;;19.90;99.90;;;;;;5050929;28;20796;-82
2022/03/11 11:46:23;;;;;;;7.05;1.85;;;19.90;99.90;;;;;;5035494;28;20853;-92
2022/03/11 11:48:59;;;;;;;5.53;1.90;;;19.80;99.90;;;;;;5055923;28;20379;-83
2022/03/11 11:51:37;;;;;;;5.93;1.90;;;19.70;99.90;;;;;;5055555;28;20390;-92
2022/03/11 11:54:08;;;;;;;7.25;2.30;;;19.70;99.90;;;;;;5069755;28;20872;-91
2022/03/11 11:57:01;;;;;;;6.30;1.90;;;19.60;99.90;;;;;;5050672;28;20396;-92
2022/03/11 11:59:35;;;;;;;8.30;2.10;;;19.60;99.90;;;;;;5039381;28;20397;-86
2022/03/11 12:02:24;;;;;;;5.70;1.70;;;19.50;99.90;;;;;;5074924;28;20641;-82
2022/03/11 12:04:53;;;;;;;7.07;1.93;;;19.50;99.90;;;;;;5074113;28;20440;-88
2022/03/11 12:07:22;;;;;;;6.22;1.85;;;19.40;99.90;;;;;;5073466;28;20403;-83
2022/03/11 12:09:58;;;;;;;7.97;1.73;;;19.40;99.90;;;;;;5071470;28;20414;-90
2022/03/11 12:12:35;;;;;;;4.93;1.60;;;19.40;99.90;;;;;;5070822;28;20628;-85
2022/03/11 12:15:05;;;;;;;7.50;1.80;;;19.40;99.90;;;;;;5053396;28;20400;-90
2022/03/11 12:17:58;;;;;;;7.75;1.95;;;19.40;99.90;;;;;;5035707;28;20376;-87
2022/03/11 12:20:48;;;;;;;6.07;1.80;;;19.30;99.90;;;;;;5053832;28;20399;-82
2022/03/11 12:23:21;;;;;;;6.55;2.03;;;19.30;99.90;;;;;;5053912;28;20471;-85
2022/03/11 12:26:02;;;;;;;5.63;1.80;;;19.30;99.90;;;;;;5071658;28;20393;-88
2022/03/11 12:28:33;;;;;;;4.35;1.80;;;19.20;99.90;;;;;;5053224;28;20381;-84
2022/03/11 12:31:24;;;;;;;6.28;1.70;;;19.10;99.90;;;;;;5073505;28;20386;-90
2022/03/11 12:33:51;;;;;;;8.40;2.67;;;19.10;99.90;;;;;;5069775;28;20421;-89
2022/03/11 12:36:20;;;;;;;7.95;3.30;;;19.00;99.90;;;;;;5070673;28;20409;-84
2022/03/11 12:38:49;;;;;;;5.53;2.63;;;18.90;99.90;;;;;;5041051;28;20914;-83
2022/03/11 12:41:24;;;;;;;7.45;3.05;;;18.90;99.90;;;;;;5052681;28;20835;-88
2022/03/11 12:43:52;;;;;;;8.07;3.40;;;18.80;99.90;;;;;;5045261;28;20452;-85
2022/03/11 12:46:20;;;;;;;10.38;3.17;;;18.80;99.90;;;;;;5060078;28;20382;-81
2022/03/11 12:48:47;;;;;;;6.82;2.33;;;18.80;99.90;;;;;;5064784;28;21218;-84
2022/03/11 12:51:21;;;;;;;7.40;1.93;;;18.70;99.90;;;;;;5070833;28;20493;-93
2022/03/11 12:53:50;;;;;;;7.38;1.90;;;18.70;99.90;;;;;;5068030;28;20398;-87